Time;durP1;ratioP1;P1;durP2;ratioP2;P2;SDS_P1;SDS_P2;PMS_P1;PMS_P2;Temp;Humidity;BMP_temperature;BMP_pressure;BME280_temperature;BME280_humidity;BME280_pressure;Samples;Min_cycle;Max_cycle;Signal;HPM_P1;HPM_P2
2022/08/20 00:01:03;;;;;;;8.77;5.83;;;20.40;99.90;;;;;;5011651;28;20724;-49
2022/08/20 00:03:34;;;;;;;8.63;5.73;;;20.40;99.90;;;;;;5011848;28;20681;-50
2022/08/20 00:06:15;;;;;;;10.10;6.27;;;20.30;99.90;;;;;;5008931;28;20243;-47
2022/08/20 00:08:44;;;;;;;11.53;6.37;;;20.30;99.90;;;;;;5008995;28;20625;-49
2022/08/20 00:11:15;;;;;;;8.90;6.10;;;20.40;99.90;;;;;;5010559;28;20244;-47
2022/08/20 00:13:54;;;;;;;9.90;5.50;;;20.30;99.90;;;;;;5008612;28;20212;-50
2022/08/20 00:16:24;;;;;;;8.50;6.13;;;20.30;99.90;;;;;;5014170;28;20698;-49
2022/08/20 00:18:51;;;;;;;8.23;6.47;;;20.30;99.90;;;;;;5006133;28;20201;-49
2022/08/20 00:21:19;;;;;;;8.73;5.90;;;20.30;99.90;;;;;;5011256;28;20207;-48
2022/08/20 00:23:48;;;;;;;9.07;6.07;;;20.20;99.90;;;;;;5017341;28;20248;-49
2022/08/20 00:26:16;;;;;;;9.20;6.30;;;20.20;99.90;;;;;;5017157;28;20198;-49
2022/08/20 00:28:44;;;;;;;7.93;6.17;;;20.20;99.90;;;;;;5015658;28;20208;-48
2022/08/20 00:31:13;;;;;;;10.20;6.87;;;20.20;99.90;;;;;;5014503;28;20215;-48
2022/08/20 00:33:40;;;;;;;10.33;6.03;;;20.20;99.90;;;;;;5018579;28;20212;-50
2022/08/20 00:36:09;;;;;;;9.97;6.27;;;20.20;99.90;;;;;;5015109;28;20272;-50
2022/08/20 00:38:39;;;;;;;10.33;7.00;;;20.30;99.90;;;;;;5014516;28;20205;-50
2022/08/20 00:41:08;;;;;;;9.90;6.77;;;20.40;99.90;;;;;;5017040;28;20203;-48
2022/08/20 00:43:48;;;;;;;9.50;6.57;;;20.30;99.90;;;;;;5013407;28;20271;-49
2022/08/20 00:46:23;;;;;;;12.00;6.80;;;20.40;99.90;;;;;;5007140;28;20343;-47
2022/08/20 00:48:59;;;;;;;12.50;7.10;;;20.40;99.90;;;;;;5013021;28;20213;-48
2022/08/20 00:51:42;;;;;;;9.50;6.77;;;20.40;99.90;;;;;;5010719;28;20306;-47
2022/08/20 00:54:33;;;;;;;11.37;7.13;;;20.30;99.90;;;;;;5012234;28;20808;-49
2022/08/20 00:57:07;;;;;;;12.67;6.67;;;20.40;99.90;;;;;;5009539;28;20291;-51
2022/08/20 00:59:36;;;;;;;10.17;6.83;;;20.40;99.90;;;;;;5012256;28;20575;-51
2022/08/20 01:02:14;;;;;;;11.33;7.43;;;20.30;99.90;;;;;;5012466;28;20240;-50
2022/08/20 01:04:45;;;;;;;12.00;7.07;;;20.30;99.90;;;;;;5014701;28;20204;-46
2022/08/20 01:07:12;;;;;;;11.37;7.70;;;20.20;99.90;;;;;;5010086;28;20293;-51
2022/08/20 01:09:39;;;;;;;10.13;7.30;;;20.20;99.90;;;;;;5013570;28;20201;-48
2022/08/20 01:12:26;;;;;;;10.43;7.27;;;20.20;99.90;;;;;;5014790;28;20293;-47
2022/08/20 01:14:54;;;;;;;10.70;8.00;;;20.40;99.90;;;;;;5011928;28;20309;-49
2022/08/20 01:17:24;;;;;;;11.13;7.03;;;20.40;99.90;;;;;;5039081;28;20205;-47
2022/08/20 01:20:05;;;;;;;8.63;6.90;;;20.40;99.90;;;;;;5009092;28;20333;-51
2022/08/20 01:25:51;;;;;;;13.07;8.23;;;20.20;99.90;;;;;;5012078;28;20200;-48
2022/08/20 01:28:23;;;;;;;9.90;7.37;;;20.30;99.90;;;;;;5006905;28;20568;-51
2022/08/20 01:30:52;;;;;;;9.63;7.13;;;20.30;99.90;;;;;;5010033;28;20205;-48
2022/08/20 01:33:21;;;;;;;7.83;6.30;;;20.20;99.90;;;;;;5014486;28;21028;-46
2022/08/20 01:35:49;;;;;;;11.07;6.60;;;20.20;99.90;;;;;;5008178;28;20216;-51
2022/08/20 01:38:16;;;;;;;11.43;6.60;;;20.30;99.90;;;;;;5009981;28;20208;-48
2022/08/20 01:40:53;;;;;;;9.60;6.57;;;20.30;99.90;;;;;;5009926;28;20252;-50
2022/08/20 01:43:20;;;;;;;7.50;5.57;;;20.40;99.90;;;;;;5009517;28;20357;-50
2022/08/20 01:45:50;;;;;;;11.13;5.63;;;20.40;99.90;;;;;;5008678;28;20197;-49
2022/08/20 01:48:19;;;;;;;8.10;5.57;;;20.40;99.90;;;;;;5010540;28;20561;-50
2022/08/20 01:50:55;;;;;;;6.73;5.63;;;20.20;99.90;;;;;;5011145;28;20205;-48
2022/08/20 01:53:36;;;;;;;9.57;5.53;;;20.10;99.90;;;;;;5008378;28;20206;-50
2022/08/20 01:56:06;;;;;;;8.67;5.40;;;20.10;99.90;;;;;;5006189;28;20295;-49
2022/08/20 01:58:35;;;;;;;10.00;6.47;;;20.10;99.90;;;;;;5010293;28;20241;-49
2022/08/20 02:01:02;;;;;;;11.67;6.67;;;20.20;99.90;;;;;;5013848;28;20296;-48
2022/08/20 02:03:30;;;;;;;11.10;6.53;;;20.10;99.90;;;;;;5013841;28;20724;-49
2022/08/20 02:06:04;;;;;;;9.07;6.63;;;20.20;99.90;;;;;;5012690;28;20193;-49
2022/08/20 02:08:32;;;;;;;11.67;7.73;;;20.00;99.90;;;;;;5008818;28;20571;-49
2022/08/20 02:10:59;;;;;;;13.07;8.63;;;20.10;99.90;;;;;;5011066;28;20664;-49
2022/08/20 02:13:26;;;;;;;13.73;7.83;;;20.10;99.90;;;;;;5013254;28;20697;-49
2022/08/20 02:15:53;;;;;;;12.77;8.93;;;20.10;99.90;;;;;;5007354;28;20299;-49
2022/08/20 02:18:21;;;;;;;14.13;8.57;;;20.10;99.90;;;;;;5009953;28;20215;-48
2022/08/20 02:20:50;;;;;;;11.40;8.83;;;20.00;99.90;;;;;;5009497;28;20895;-49
2022/08/20 02:23:17;;;;;;;11.03;8.40;;;20.00;99.90;;;;;;5014328;28;20213;-49
2022/08/20 02:25:46;;;;;;;10.37;8.30;;;20.00;99.90;;;;;;5006867;28;20236;-50
2022/08/20 02:28:16;;;;;;;12.23;9.13;;;20.10;99.90;;;;;;5015372;28;20258;-50
2022/08/20 02:30:46;;;;;;;12.10;8.50;;;20.00;99.90;;;;;;5009259;28;20197;-49
2022/08/20 02:33:15;;;;;;;13.47;8.40;;;20.10;99.90;;;;;;5007411;28;20217;-49
2022/08/20 02:35:45;;;;;;;15.97;9.70;;;20.00;99.90;;;;;;5010609;28;20221;-49
2022/08/20 02:38:14;;;;;;;12.27;8.70;;;20.10;99.90;;;;;;5010811;28;20611;-49
2022/08/20 02:40:43;;;;;;;14.73;9.27;;;20.00;99.90;;;;;;5007476;28;20728;-49
2022/08/20 02:43:10;;;;;;;12.70;8.70;;;19.90;99.90;;;;;;5009446;28;20248;-49
2022/08/20 02:45:42;;;;;;;15.47;10.07;;;19.80;99.90;;;;;;5008711;28;22206;-49
2022/08/20 02:48:14;;;;;;;16.33;9.73;;;19.90;99.90;;;;;;5008323;28;20558;-50
2022/08/20 02:50:43;;;;;;;15.13;9.87;;;20.00;99.90;;;;;;5007625;28;20209;-49
2022/08/20 02:53:10;;;;;;;15.47;10.00;;;19.90;99.90;;;;;;5012438;28;20213;-48
2022/08/20 02:55:37;;;;;;;17.40;11.10;;;19.80;99.90;;;;;;5009852;28;20229;-51
2022/08/20 02:58:04;;;;;;;19.20;11.30;;;19.80;99.90;;;;;;5008639;28;20742;-49
2022/08/20 03:00:32;;;;;;;19.67;12.60;;;19.80;99.90;;;;;;5009044;28;20225;-48
2022/08/20 03:03:07;;;;;;;19.30;11.37;;;19.70;99.90;;;;;;5009976;28;20796;-48
2022/08/20 03:05:38;;;;;;;17.73;13.23;;;19.60;99.90;;;;;;5010282;28;20342;-51
2022/08/20 03:08:08;;;;;;;19.37;12.00;;;19.50;99.90;;;;;;5005669;28;20212;-51
2022/08/20 03:10:36;;;;;;;21.97;13.27;;;19.70;99.90;;;;;;5008072;28;20205;-51
2022/08/20 03:13:05;;;;;;;22.70;14.40;;;19.70;99.90;;;;;;5010048;28;20240;-50
2022/08/20 03:15:33;;;;;;;19.57;12.90;;;19.60;99.90;;;;;;5009400;28;20675;-49
2022/08/20 03:18:00;;;;;;;18.47;13.83;;;19.50;99.90;;;;;;5007925;28;20700;-50
2022/08/20 03:20:28;;;;;;;18.87;13.33;;;19.50;99.90;;;;;;5008840;28;20292;-49
2022/08/20 03:22:55;;;;;;;19.93;14.03;;;19.60;99.90;;;;;;5007311;28;20629;-49
2022/08/20 03:25:23;;;;;;;23.53;14.40;;;19.80;99.90;;;;;;5024518;28;20205;-48
2022/08/20 03:27:49;;;;;;;26.23;13.83;;;19.60;99.90;;;;;;5010756;28;20232;-48
2022/08/20 03:30:21;;;;;;;23.30;14.97;;;19.60;99.90;;;;;;5008222;28;20225;-48
2022/08/20 03:32:48;;;;;;;21.57;14.83;;;19.70;99.90;;;;;;5009680;28;20552;-50
2022/08/20 03:35:16;;;;;;;23.47;14.73;;;19.50;99.90;;;;;;5009404;28;20205;-48
2022/08/20 03:37:44;;;;;;;23.63;14.90;;;19.60;99.90;;;;;;5009845;28;20760;-50
2022/08/20 03:40:18;;;;;;;24.10;15.90;;;19.60;99.90;;;;;;5009160;28;20200;-48
2022/08/20 03:42:45;;;;;;;23.67;15.77;;;19.60;99.90;;;;;;5010735;28;20205;-48
2022/08/20 03:45:12;;;;;;;23.47;16.20;;;19.40;99.90;;;;;;5009177;28;20201;-48
2022/08/20 03:47:46;;;;;;;24.03;15.27;;;19.50;99.90;;;;;;5006103;28;20681;-50
2022/08/20 03:50:13;;;;;;;25.23;16.03;;;19.40;99.90;;;;;;5010378;28;20216;-49
2022/08/20 03:52:53;;;;;;;26.20;16.13;;;19.30;99.90;;;;;;5006291;28;20566;-49
2022/08/20 03:55:22;;;;;;;26.23;15.60;;;19.30;99.90;;;;;;5008005;28;20315;-49
2022/08/20 03:57:55;;;;;;;24.00;15.63;;;19.20;99.90;;;;;;5009324;28;20261;-47
2022/08/20 04:00:28;;;;;;;25.00;16.37;;;19.30;99.90;;;;;;5009420;28;20215;-48
2022/08/20 04:02:56;;;;;;;28.10;16.30;;;19.40;99.90;;;;;;5007195;28;20834;-48
2022/08/20 04:05:24;;;;;;;27.10;16.50;;;19.50;99.90;;;;;;5010128;28;20648;-50
2022/08/20 04:07:56;;;;;;;25.13;15.70;;;19.40;99.90;;;;;;5005821;28;20208;-48
2022/08/20 04:10:30;;;;;;;23.60;16.43;;;19.50;99.90;;;;;;5010584;28;20205;-48
2022/08/20 04:12:57;;;;;;;24.57;15.67;;;19.50;99.90;;;;;;5008930;28;20189;-49
2022/08/20 04:15:25;;;;;;;28.00;17.07;;;19.50;99.90;;;;;;5009896;28;20233;-48
2022/08/20 04:17:52;;;;;;;25.47;16.63;;;19.50;99.90;;;;;;5006685;28;20236;-48
2022/08/20 04:20:22;;;;;;;26.47;16.27;;;19.40;99.90;;;;;;5013898;28;20266;-49
2022/08/20 04:22:53;;;;;;;27.97;17.47;;;19.50;99.90;;;;;;5012491;28;20193;-49
2022/08/20 04:25:27;;;;;;;24.70;15.83;;;19.50;99.90;;;;;;5010249;28;20267;-50
2022/08/20 04:27:59;;;;;;;26.93;16.77;;;19.40;99.90;;;;;;5012231;28;20198;-50
2022/08/20 04:30:26;;;;;;;22.40;16.67;;;19.50;99.90;;;;;;5011232;28;20212;-49
2022/08/20 04:32:54;;;;;;;24.17;16.70;;;19.50;99.90;;;;;;5012944;28;20208;-49
2022/08/20 04:35:23;;;;;;;26.23;16.37;;;19.40;99.90;;;;;;5010526;28;20259;-49
2022/08/20 04:38:01;;;;;;;26.10;17.40;;;19.40;99.90;;;;;;5015900;28;20206;-48
2022/08/20 04:43:14;;;;;;;24.77;16.53;;;19.40;99.90;;;;;;5015231;28;20296;-49
2022/08/20 04:45:42;;;;;;;25.50;16.93;;;19.60;99.90;;;;;;5012740;28;20209;-49
2022/08/20 04:48:09;;;;;;;27.87;16.50;;;19.60;99.90;;;;;;5013717;28;20283;-49
2022/08/20 04:50:43;;;;;;;25.10;16.57;;;19.60;99.90;;;;;;5011897;28;20268;-49
2022/08/20 04:53:12;;;;;;;24.10;15.87;;;19.60;99.90;;;;;;5014248;28;20236;-50
2022/08/20 04:55:41;;;;;;;25.23;16.67;;;19.50;99.90;;;;;;5014030;28;20305;-49
2022/08/20 04:58:29;;;;;;;25.53;15.97;;;19.60;99.90;;;;;;5014468;28;20205;-50
2022/08/20 05:00:59;;;;;;;24.73;16.87;;;19.70;99.90;;;;;;5012227;28;20828;-49
2022/08/20 05:03:27;;;;;;;29.77;17.40;;;19.70;99.90;;;;;;5011883;28;20252;-49
2022/08/20 05:05:55;;;;;;;20.90;14.77;;;19.70;99.90;;;;;;5013690;28;20603;-48
2022/08/20 05:08:24;;;;;;;27.30;15.60;;;19.60;99.90;;;;;;5008041;28;20566;-48
2022/08/20 05:10:52;;;;;;;25.30;16.17;;;19.60;99.90;;;;;;5015242;28;20208;-47
2022/08/20 05:13:40;;;;;;;21.13;15.47;;;19.60;99.90;;;;;;5015607;28;20212;-48
2022/08/20 05:16:07;;;;;;;27.60;16.70;;;19.70;99.90;;;;;;5008019;28;20201;-49
2022/08/20 05:18:34;;;;;;;25.37;17.80;;;19.70;99.90;;;;;;5011479;28;20299;-49
2022/08/20 05:21:04;;;;;;;28.20;18.37;;;19.60;99.90;;;;;;5014342;28;20232;-50
2022/08/20 05:23:33;;;;;;;32.13;19.33;;;19.50;99.90;;;;;;5011156;28;20225;-48
2022/08/20 05:26:06;;;;;;;27.50;19.03;;;19.50;99.90;;;;;;5012009;28;20208;-49
2022/08/20 05:28:33;;;;;;;31.70;19.90;;;19.50;99.90;;;;;;5011009;28;20655;-49
2022/08/20 05:31:16;;;;;;;30.20;19.93;;;19.40;99.90;;;;;;5009601;28;20274;-48
2022/08/20 05:33:43;;;;;;;32.30;19.17;;;19.30;99.90;;;;;;5013242;28;20202;-49
2022/08/20 05:36:11;;;;;;;34.07;20.43;;;19.30;99.90;;;;;;5013818;28;22317;-48
2022/08/20 05:38:42;;;;;;;29.13;20.47;;;19.30;99.90;;;;;;5009835;28;20203;-49
2022/08/20 05:41:15;;;;;;;34.53;19.40;;;19.30;99.90;;;;;;5012231;28;20204;-50
2022/08/20 05:44:01;;;;;;;33.20;19.57;;;19.30;99.90;;;;;;5012572;28;20228;-49
2022/08/20 05:46:30;;;;;;;29.27;17.63;;;19.30;99.90;;;;;;5008781;28;20231;-48
2022/08/20 05:48:58;;;;;;;29.80;19.40;;;19.30;99.90;;;;;;5009031;28;20197;-49
2022/08/20 05:51:27;;;;;;;30.33;18.47;;;19.40;99.90;;;;;;5013587;28;20240;-48
2022/08/20 05:53:55;;;;;;;35.23;18.07;;;19.30;99.90;;;;;;5011323;28;20278;-48
2022/08/20 05:56:25;;;;;;;33.33;19.13;;;19.40;99.90;;;;;;5009611;28;20893;-48
2022/08/20 05:58:53;;;;;;;33.20;19.60;;;19.30;99.90;;;;;;5013260;28;20612;-47
2022/08/20 06:01:20;;;;;;;33.47;19.30;;;19.30;99.90;;;;;;5005297;28;20204;-49
2022/08/20 06:06:33;;;;;;;29.13;18.47;;;19.20;99.90;;;;;;5011981;28;20209;-49
2022/08/20 06:09:11;;;;;;;38.83;20.13;;;19.20;99.90;;;;;;5011363;28;20214;-50
2022/08/20 06:11:38;;;;;;;34.60;21.47;;;19.10;99.90;;;;;;5012482;28;20200;-49
2022/08/20 06:14:05;;;;;;;32.57;20.73;;;19.10;99.90;;;;;;5010162;28;20200;-50
2022/08/20 06:16:32;;;;;;;35.07;20.73;;;19.00;99.90;;;;;;5010348;28;20200;-50
2022/08/20 06:18:59;;;;;;;35.30;20.47;;;19.00;99.90;;;;;;5009212;28;20213;-50
2022/08/20 06:21:28;;;;;;;31.23;19.03;;;19.00;99.90;;;;;;5011490;28;20244;-50
2022/08/20 06:23:55;;;;;;;28.17;17.73;;;19.10;99.90;;;;;;5010990;28;20645;-49
2022/08/20 06:26:28;;;;;;;30.83;18.80;;;19.00;99.90;;;;;;5012003;28;20281;-49
2022/08/20 06:28:58;;;;;;;25.40;18.23;;;19.00;99.90;;;;;;5009891;28;20671;-48
2022/08/20 06:31:26;;;;;;;30.83;19.27;;;19.20;99.90;;;;;;5011203;28;20224;-49
2022/08/20 06:33:53;;;;;;;26.63;18.00;;;19.20;99.90;;;;;;5010833;28;20726;-49
2022/08/20 06:36:20;;;;;;;31.77;18.20;;;19.30;99.90;;;;;;5011447;28;20255;-48
2022/08/20 06:38:47;;;;;;;32.73;18.40;;;19.30;99.90;;;;;;5008745;28;20237;-51
2022/08/20 06:41:15;;;;;;;29.57;16.97;;;19.10;99.90;;;;;;5010430;28;21339;-50
2022/08/20 06:43:42;;;;;;;25.23;16.60;;;19.10;99.90;;;;;;5012316;28;20249;-48
2022/08/20 06:46:09;;;;;;;32.23;18.57;;;19.00;99.90;;;;;;4657335;28;9999909;-49
2022/08/20 06:48:37;;;;;;;30.43;17.60;;;19.00;99.90;;;;;;5003334;28;20205;-50
2022/08/20 06:51:05;;;;;;;28.50;16.67;;;19.00;99.90;;;;;;5007994;28;20236;-47
2022/08/20 06:53:32;;;;;;;24.33;15.83;;;19.20;99.90;;;;;;5009590;28;20668;-48
2022/08/20 06:55:59;;;;;;;20.63;15.30;;;19.30;99.90;;;;;;5011604;28;20204;-51
2022/08/20 06:58:31;;;;;;;23.23;15.67;;;19.10;99.90;;;;;;4999362;28;20197;-48
2022/08/20 07:01:06;;;;;;;23.33;15.53;;;19.00;99.90;;;;;;5015145;28;20493;-51
2022/08/20 07:03:40;;;;;;;23.37;16.70;;;19.00;99.90;;;;;;5008392;28;20221;-49
2022/08/20 07:06:20;;;;;;;21.53;15.63;;;19.10;99.90;;;;;;5010621;28;20334;-49
2022/08/20 07:08:46;;;;;;;23.40;16.23;;;19.20;99.90;;;;;;5011482;28;20726;-49
2022/08/20 07:11:13;;;;;;;20.53;14.83;;;19.10;99.90;;;;;;5010948;28;20323;-50
2022/08/20 07:13:40;;;;;;;25.27;15.90;;;19.20;99.90;;;;;;5009434;28;20288;-48
2022/08/20 07:16:08;;;;;;;20.83;15.17;;;19.30;99.90;;;;;;5010674;28;20196;-49
2022/08/20 07:18:35;;;;;;;20.10;14.30;;;19.30;99.90;;;;;;5007164;28;20193;-48
2022/08/20 07:21:02;;;;;;;21.57;13.37;;;19.30;99.90;;;;;;5009094;28;20196;-50
2022/08/20 07:23:30;;;;;;;18.77;13.17;;;19.40;99.90;;;;;;5008337;28;20205;-50
2022/08/20 07:25:57;;;;;;;17.23;13.87;;;19.30;99.90;;;;;;5026230;28;20724;-49
2022/08/20 07:28:30;;;;;;;16.17;13.43;;;19.30;99.90;;;;;;5012233;28;20562;-49
2022/08/20 07:33:46;;;;;;;18.20;11.57;;;19.40;99.90;;;;;;5004505;28;20204;-50
2022/08/20 07:36:16;;;;;;;19.53;13.07;;;19.70;99.90;;;;;;5010702;28;20572;-49
2022/08/20 07:38:47;;;;;;;15.47;11.93;;;19.90;99.90;;;;;;5010164;28;20653;-50
2022/08/20 07:41:14;;;;;;;19.80;13.07;;;19.90;99.90;;;;;;5009831;28;20646;-49
2022/08/20 07:43:44;;;;;;;14.90;12.00;;;19.90;99.90;;;;;;5012516;28;20295;-49
2022/08/20 07:46:16;;;;;;;16.90;12.87;;;20.00;99.90;;;;;;5009959;28;20224;-50
2022/08/20 07:48:48;;;;;;;14.97;11.67;;;20.10;99.90;;;;;;5008894;28;20215;-50
2022/08/20 07:51:18;;;;;;;15.63;10.83;;;20.20;99.90;;;;;;5007982;28;20252;-51
2022/08/20 07:53:46;;;;;;;13.40;12.03;;;20.10;99.90;;;;;;5007152;28;20255;-50
2022/08/20 07:56:18;;;;;;;16.83;11.90;;;19.90;99.90;;;;;;5014342;28;20232;-49
2022/08/20 07:58:49;;;;;;;15.97;11.57;;;19.90;99.90;;;;;;5011572;28;20654;-47
2022/08/20 08:01:23;;;;;;;19.97;12.90;;;19.90;99.90;;;;;;5013503;28;20208;-49
2022/08/20 08:03:50;;;;;;;14.33;11.93;;;20.00;99.90;;;;;;5012622;28;20193;-49
2022/08/20 08:06:19;;;;;;;15.50;11.47;;;19.90;99.90;;;;;;5014908;28;20204;-49
2022/08/20 08:09:02;;;;;;;14.03;10.83;;;20.10;99.90;;;;;;5012916;28;20197;-48
2022/08/20 08:11:31;;;;;;;13.13;10.17;;;20.30;99.90;;;;;;5010979;28;20193;-49
2022/08/20 08:13:59;;;;;;;12.67;9.70;;;20.60;99.90;;;;;;5019022;28;20252;-47
2022/08/20 08:16:27;;;;;;;12.33;9.73;;;20.70;99.90;;;;;;5011138;28;20595;-49
2022/08/20 08:18:55;;;;;;;15.00;9.57;;;20.80;99.90;;;;;;5011304;28;21005;-50
2022/08/20 08:21:23;;;;;;;14.90;10.17;;;20.80;99.90;;;;;;5016882;28;20676;-49
2022/08/20 08:23:50;;;;;;;12.43;9.00;;;20.90;99.90;;;;;;5013079;28;20280;-50
2022/08/20 08:26:17;;;;;;;11.70;8.93;;;20.70;99.90;;;;;;5017253;28;20213;-49
2022/08/20 08:28:45;;;;;;;15.50;9.90;;;21.20;99.90;;;;;;5015293;28;20630;-48
2022/08/20 08:31:13;;;;;;;12.40;9.30;;;21.30;99.90;;;;;;5014061;28;20601;-49
2022/08/20 08:33:41;;;;;;;9.77;8.40;;;21.70;99.90;;;;;;5013548;28;20221;-49
2022/08/20 08:36:14;;;;;;;17.17;8.30;;;21.50;99.90;;;;;;5013873;28;20657;-50
2022/08/20 08:38:43;;;;;;;15.40;9.53;;;21.70;99.90;;;;;;5011079;28;20817;-51
2022/08/20 08:41:31;;;;;;;9.47;7.30;;;21.80;99.90;;;;;;5014753;28;20736;-48
2022/08/20 08:44:08;;;;;;;8.87;7.27;;;21.90;99.90;;;;;;5015796;28;20229;-49
2022/08/20 08:46:42;;;;;;;9.27;6.63;;;22.20;99.90;;;;;;5007369;28;20610;-50
2022/08/20 08:49:20;;;;;;;10.57;7.00;;;22.00;99.90;;;;;;5016749;28;20193;-51
2022/08/20 08:51:57;;;;;;;10.33;5.50;;;22.00;99.90;;;;;;5012580;28;20316;-49
2022/08/20 08:54:30;;;;;;;9.33;5.40;;;21.80;99.90;;;;;;5010540;28;20228;-50
2022/08/20 08:56:58;;;;;;;8.73;6.97;;;21.60;99.90;;;;;;5012720;28;20245;-51
2022/08/20 08:59:28;;;;;;;9.63;5.33;;;21.30;99.90;;;;;;5014532;28;20583;-50
2022/08/20 09:02:21;;;;;;;7.90;4.57;;;21.20;99.90;;;;;;5013872;28;20272;-49
2022/08/20 09:04:50;;;;;;;6.60;4.57;;;21.70;99.90;;;;;;5014405;28;20598;-50
2022/08/20 09:07:17;;;;;;;9.73;4.90;;;21.80;99.90;;;;;;5010652;28;20203;-50
2022/08/20 09:09:45;;;;;;;7.13;4.00;;;22.00;99.90;;;;;;5010645;28;20740;-49
2022/08/20 09:12:18;;;;;;;8.03;4.00;;;22.60;99.90;;;;;;5008213;28;20637;-49
2022/08/20 09:14:47;;;;;;;9.97;3.97;;;22.60;99.90;;;;;;5022857;28;20306;-52
2022/08/20 09:17:15;;;;;;;7.33;3.40;;;22.70;99.90;;;;;;5039493;28;20236;-51
2022/08/20 09:19:42;;;;;;;7.60;3.93;;;22.40;99.90;;;;;;5021035;28;20806;-51
2022/08/20 09:22:10;;;;;;;7.90;3.67;;;22.30;99.90;;;;;;5013978;28;20201;-51
2022/08/20 09:24:38;;;;;;;7.60;3.00;;;23.20;99.90;;;;;;5014715;28;20244;-50
2022/08/20 09:27:04;;;;;;;7.37;2.77;;;24.20;99.90;;;;;;5012067;28;20615;-51
2022/08/20 09:29:32;;;;;;;3.60;2.10;;;23.50;99.90;;;;;;5008713;28;20271;-51
2022/08/20 09:32:20;;;;;;;5.63;1.73;;;23.80;99.90;;;;;;5012707;28;20209;-52
2022/08/20 09:34:50;;;;;;;6.37;2.60;;;24.00;99.90;;;;;;5010658;28;20254;-52
2022/08/20 09:37:18;;;;;;;5.80;2.57;;;24.00;99.90;;;;;;5011018;28;20217;-51
2022/08/20 09:39:45;;;;;;;5.33;1.97;;;24.90;99.90;;;;;;5010538;28;20302;-51
2022/08/20 09:42:17;;;;;;;5.07;1.70;;;25.20;99.90;;;;;;5012591;28;20567;-51
2022/08/20 09:44:44;;;;;;;6.33;1.70;;;25.20;99.90;;;;;;5003419;28;20945;-51
2022/08/20 09:47:11;;;;;;;8.27;2.30;;;24.80;99.90;;;;;;5015910;28;20212;-51
2022/08/20 09:49:39;;;;;;;8.00;2.20;;;25.30;99.90;;;;;;5016384;28;20211;-51
2022/08/20 09:52:09;;;;;;;7.70;1.70;;;24.50;99.90;;;;;;5018813;28;20205;-53
2022/08/20 09:54:39;;;;;;;5.17;1.90;;;24.50;99.90;;;;;;5015122;28;20219;-52
2022/08/20 09:57:13;;;;;;;2.07;1.10;;;24.30;99.90;;;;;;5016242;28;20207;-52
2022/08/20 09:59:41;;;;;;;7.83;2.20;;;24.20;99.90;;;;;;5017480;28;20260;-52
2022/08/20 10:02:08;;;;;;;5.13;1.40;;;24.80;99.90;;;;;;5017040;28;20250;-52
2022/08/20 10:04:35;;;;;;;3.17;1.77;;;24.70;99.90;;;;;;5016404;28;20217;-52
2022/08/20 10:07:06;;;;;;;9.37;1.77;;;24.60;99.90;;;;;;5017760;28;20366;-52
2022/08/20 10:09:35;;;;;;;5.40;2.00;;;24.30;99.90;;;;;;5018024;28;20200;-52
2022/08/20 10:12:03;;;;;;;7.97;2.00;;;24.40;99.90;;;;;;5015813;28;20241;-52
2022/08/20 10:14:30;;;;;;;7.97;1.83;;;24.20;99.90;;;;;;5017865;28;20285;-51
2022/08/20 10:16:59;;;;;;;7.13;1.40;;;24.20;99.90;;;;;;5015119;28;20210;-52
2022/08/20 10:19:26;;;;;;;9.37;2.27;;;24.20;99.90;;;;;;5018290;28;20207;-52
2022/08/20 10:21:53;;;;;;;5.57;1.70;;;24.40;99.90;;;;;;5020031;28;20201;-52
2022/08/20 10:24:21;;;;;;;6.60;1.70;;;24.40;99.90;;;;;;5017729;28;20642;-51
2022/08/20 10:26:48;;;;;;;7.60;2.23;;;24.10;99.90;;;;;;5017784;28;20210;-51
2022/08/20 10:29:15;;;;;;;2.73;1.37;;;24.00;99.90;;;;;;5017409;28;20565;-52
2022/08/20 10:31:42;;;;;;;5.63;1.80;;;24.10;99.90;;;;;;5016815;28;20282;-51
2022/08/20 10:34:09;;;;;;;6.57;1.70;;;24.20;99.90;;;;;;5016851;28;20636;-52
2022/08/20 10:36:36;;;;;;;6.53;2.00;;;24.10;99.90;;;;;;5017573;28;20334;-53
2022/08/20 10:39:03;;;;;;;5.10;1.80;;;23.80;99.90;;;;;;5017064;28;20239;-52
2022/08/20 10:41:30;;;;;;;5.63;1.63;;;23.70;99.90;;;;;;5019924;28;20202;-52
2022/08/20 10:43:57;;;;;;;7.23;3.00;;;23.70;99.90;;;;;;5016944;28;20598;-52
2022/08/20 10:46:24;;;;;;;5.17;1.60;;;23.90;99.90;;;;;;5015940;28;20740;-51
2022/08/20 10:48:51;;;;;;;7.27;1.90;;;24.00;99.90;;;;;;5016924;28;20270;-53
2022/08/20 10:51:18;;;;;;;6.73;1.83;;;23.80;99.90;;;;;;5013320;28;20202;-51
2022/08/20 10:53:44;;;;;;;6.27;1.40;;;23.80;99.90;;;;;;5016411;28;20235;-52
2022/08/20 10:56:11;;;;;;;4.00;1.40;;;23.60;99.90;;;;;;5015589;28;20240;-52
2022/08/20 10:58:41;;;;;;;8.30;2.10;;;24.00;99.90;;;;;;5017842;28;20217;-52
2022/08/20 11:01:10;;;;;;;3.30;1.50;;;24.20;99.90;;;;;;5017227;28;20251;-53
2022/08/20 11:03:37;;;;;;;5.87;1.83;;;24.10;99.90;;;;;;5012790;28;20318;-52
2022/08/20 11:06:04;;;;;;;8.73;1.90;;;24.00;99.90;;;;;;5015402;28;20254;-51
2022/08/20 11:08:31;;;;;;;5.23;1.80;;;24.10;99.90;;;;;;5017622;28;20561;-52
2022/08/20 11:11:00;;;;;;;4.50;1.17;;;24.00;99.90;;;;;;5015448;28;20562;-52
2022/08/20 11:13:27;;;;;;;7.13;1.90;;;24.40;99.90;;;;;;5014343;28;20216;-51
2022/08/20 11:15:54;;;;;;;7.83;1.67;;;25.10;99.90;;;;;;5015860;28;20211;-51
2022/08/20 11:18:21;;;;;;;5.93;1.70;;;24.80;99.90;;;;;;5016534;28;20212;-52
2022/08/20 11:20:48;;;;;;;6.03;1.77;;;25.10;99.90;;;;;;5016347;28;20204;-52
2022/08/20 11:23:14;;;;;;;6.40;2.23;;;26.00;99.90;;;;;;5017263;28;20618;-52
2022/08/20 11:25:41;;;;;;;4.37;1.50;;;26.50;99.90;;;;;;5016495;28;20719;-52
2022/08/20 11:28:08;;;;;;;5.67;1.50;;;26.60;99.90;;;;;;5015232;28;20288;-52
2022/08/20 11:30:36;;;;;;;4.90;1.60;;;25.70;99.90;;;;;;5010588;28;20254;-52
2022/08/20 11:33:03;;;;;;;7.03;1.67;;;25.80;99.90;;;;;;5014550;28;20747;-52
2022/08/20 11:35:32;;;;;;;6.60;1.53;;;25.20;99.90;;;;;;5014155;28;20676;-52
2022/08/20 11:38:15;;;;;;;4.23;1.70;;;24.80;99.90;;;;;;5016949;28;20205;-54
2022/08/20 11:40:42;;;;;;;7.43;1.60;;;24.60;99.90;;;;;;5017345;28;20697;-52
2022/08/20 11:43:10;;;;;;;4.97;1.73;;;25.40;99.90;;;;;;5015243;28;20204;-53
2022/08/20 11:45:45;;;;;;;8.00;1.70;;;26.30;99.90;;;;;;5014488;28;20229;-52
2022/08/20 11:48:12;;;;;;;6.60;1.83;;;26.90;99.90;;;;;;5015550;28;20665;-52
2022/08/20 11:50:40;;;;;;;6.00;1.20;;;27.10;99.90;;;;;;5015861;28;20808;-52
2022/08/20 11:53:07;;;;;;;5.33;1.93;;;27.30;99.90;;;;;;5017918;28;20251;-53
2022/08/20 11:55:35;;;;;;;5.77;1.27;;;27.40;99.90;;;;;;5016010;28;20268;-52
2022/08/20 11:58:02;;;;;;;5.53;1.90;;;27.80;99.90;;;;;;5018508;28;20265;-53
2022/08/20 12:00:30;;;;;;;5.63;1.87;;;29.10;99.90;;;;;;5017235;28;20664;-52
2022/08/20 12:03:00;;;;;;;8.43;2.25;;;30.10;99.90;;;;;;5016656;28;20270;-52
2022/08/20 12:05:28;;;;;;;7.57;1.80;;;29.40;99.90;;;;;;5016865;28;20233;-53
2022/08/20 12:07:56;;;;;;;5.87;1.60;;;28.90;99.90;;;;;;5013166;28;20209;-51
2022/08/20 12:10:25;;;;;;;5.40;1.70;;;29.60;99.90;;;;;;5017146;28;20202;-52
2022/08/20 12:12:52;;;;;;;6.33;1.40;;;29.20;99.90;;;;;;5012480;28;20209;-52
2022/08/20 12:15:20;;;;;;;5.63;1.90;;;28.90;99.90;;;;;;5013467;28;20248;-51
2022/08/20 12:17:47;;;;;;;6.13;1.90;;;28.60;99.90;;;;;;5016342;28;20232;-51
2022/08/20 12:20:14;;;;;;;5.27;1.60;;;28.40;99.90;;;;;;5015627;28;20260;-52
2022/08/20 12:22:43;;;;;;;4.93;1.90;;;28.70;99.90;;;;;;5017367;28;20204;-52
2022/08/20 12:25:10;;;;;;;4.63;1.50;;;27.90;99.90;;;;;;5016040;28;20237;-52
2022/08/20 12:27:38;;;;;;;6.07;1.60;;;27.00;99.90;;;;;;5017958;28;20285;-52
2022/08/20 12:30:18;;;;;;;7.90;1.90;;;26.20;99.90;;;;;;5014068;28;20259;-53
2022/08/20 12:32:45;;;;;;;6.47;1.37;;;26.30;99.90;;;;;;5016212;28;20564;-51
2022/08/20 12:35:14;;;;;;;6.20;1.43;;;27.10;99.90;;;;;;5017209;28;20243;-51
2022/08/20 12:37:42;;;;;;;4.17;1.30;;;27.20;99.90;;;;;;5017900;28;20276;-51
2022/08/20 12:40:12;;;;;;;4.13;1.43;;;26.50;99.90;;;;;;5017611;28;20287;-52
2022/08/20 12:42:39;;;;;;;4.88;1.60;;;25.60;99.90;;;;;;5017137;28;20318;-52
2022/08/20 12:45:07;;;;;;;4.00;1.60;;;25.20;99.90;;;;;;5016446;28;20209;-52
2022/08/20 12:47:39;;;;;;;7.30;2.28;;;26.30;99.90;;;;;;5018452;28;20200;-52
2022/08/20 12:50:15;;;;;;;7.57;1.77;;;27.30;99.90;;;;;;5020926;28;20290;-51
2022/08/20 12:52:42;;;;;;;5.82;1.58;;;26.60;99.90;;;;;;5019731;28;20738;-52
2022/08/20 12:55:10;;;;;;;5.23;1.57;;;26.00;99.90;;;;;;5019766;28;20221;-53
2022/08/20 12:57:50;;;;;;;4.70;1.58;;;25.70;99.90;;;;;;5019207;28;20252;-53
2022/08/20 13:00:21;;;;;;;7.60;2.00;;;25.30;99.90;;;;;;5018941;28;20295;-53